sensor_id;sensor_type;location;lat;lon;timestamp;temperature;humidity
25628;DHT22;40915;50.826;4.356;2023-11-21T00:00:55;9.50;99.90
25628;DHT22;40915;50.826;4.356;2023-11-21T00:03:20;9.60;99.90
25628;DHT22;40915;50.826;4.356;2023-11-21T00:05:48;9.60;99.90
25628;DHT22;40915;50.826;4.356;2023-11-21T00:08:14;9.60;99.90
25628;DHT22;40915;50.826;4.356;2023-11-21T00:10:40;9.60;99.90
25628;DHT22;40915;50.826;4.356;2023-11-21T00:13:05;9.60;99.90
25628;DHT22;40915;50.826;4.356;2023-11-21T00:15:32;9.50;99.90
25628;DHT22;40915;50.826;4.356;2023-11-21T00:17:58;9.60;99.90
25628;DHT22;40915;50.826;4.356;2023-11-21T00:20:23;9.50;99.90
25628;DHT22;40915;50.826;4.356;2023-11-21T00:22:49;9.50;99.90
25628;DHT22;40915;50.826;4.356;2023-11-21T00:25:15;9.50;99.90
25628;DHT22;40915;50.826;4.356;2023-11-21T00:27:42;9.50;99.90
25628;DHT22;40915;50.826;4.356;2023-11-21T00:30:08;9.40;99.90
25628;DHT22;40915;50.826;4.356;2023-11-21T00:32:37;9.40;99.90
25628;DHT22;40915;50.826;4.356;2023-11-21T00:35:03;9.40;99.90
25628;DHT22;40915;50.826;4.356;2023-11-21T00:37:29;9.40;99.90
25628;DHT22;40915;50.826;4.356;2023-11-21T00:39:57;9.40;99.90
25628;DHT22;40915;50.826;4.356;2023-11-21T00:42:23;9.40;99.90
25628;DHT22;40915;50.826;4.356;2023-11-21T00:44:49;9.40;99.90
25628;DHT22;40915;50.826;4.356;2023-11-21T00:47:14;9.40;99.90
25628;DHT22;40915;50.826;4.356;2023-11-21T00:49:40;9.40;99.90
25628;DHT22;40915;50.826;4.356;2023-11-21T00:52:06;9.40;99.90
25628;DHT22;40915;50.826;4.356;2023-11-21T00:54:32;9.40;99.90
25628;DHT22;40915;50.826;4.356;2023-11-21T00:56:58;9.30;99.90
25628;DHT22;40915;50.826;4.356;2023-11-21T00:59:24;9.30;99.90
25628;DHT22;40915;50.826;4.356;2023-11-21T01:01:50;9.20;99.90
25628;DHT22;40915;50.826;4.356;2023-11-21T01:04:16;9.20;99.90
25628;DHT22;40915;50.826;4.356;2023-11-21T01:06:41;9.20;99.90
25628;DHT22;40915;50.826;4.356;2023-11-21T01:09:07;9.20;99.90
25628;DHT22;40915;50.826;4.356;2023-11-21T01:11:34;9.30;99.90
25628;DHT22;40915;50.826;4.356;2023-11-21T01:14:03;9.30;99.90
25628;DHT22;40915;50.826;4.356;2023-11-21T01:16:29;9.20;99.90
25628;DHT22;40915;50.826;4.356;2023-11-21T01:18:54;9.30;99.90
25628;DHT22;40915;50.826;4.356;2023-11-21T01:21:20;9.30;99.90
25628;DHT22;40915;50.826;4.356;2023-11-21T01:23:45;9.30;99.90
25628;DHT22;40915;50.826;4.356;2023-11-21T01:26:12;9.30;99.90
25628;DHT22;40915;50.826;4.356;2023-11-21T01:28:38;9.30;99.90
25628;DHT22;40915;50.826;4.356;2023-11-21T01:31:04;9.40;99.90
25628;DHT22;40915;50.826;4.356;2023-11-21T01:33:29;9.30;99.90
25628;DHT22;40915;50.826;4.356;2023-11-21T01:35:55;9.30;99.90
25628;DHT22;40915;50.826;4.356;2023-11-21T01:38:21;9.30;99.90
25628;DHT22;40915;50.826;4.356;2023-11-21T01:40:47;9.30;99.90
25628;DHT22;40915;50.826;4.356;2023-11-21T01:43:13;9.40;99.90
25628;DHT22;40915;50.826;4.356;2023-11-21T01:45:38;9.30;99.90
25628;DHT22;40915;50.826;4.356;2023-11-21T01:48:04;9.30;99.90
25628;DHT22;40915;50.826;4.356;2023-11-21T01:50:32;9.30;99.90
25628;DHT22;40915;50.826;4.356;2023-11-21T01:52:58;9.30;99.90
25628;DHT22;40915;50.826;4.356;2023-11-21T01:55:25;9.40;99.90
25628;DHT22;40915;50.826;4.356;2023-11-21T01:57:52;9.40;99.90
25628;DHT22;40915;50.826;4.356;2023-11-21T02:00:18;9.40;99.90
25628;DHT22;40915;50.826;4.356;2023-11-21T02:02:46;9.40;99.90
25628;DHT22;40915;50.826;4.356;2023-11-21T02:05:14;9.40;99.90
25628;DHT22;40915;50.826;4.356;2023-11-21T02:07:41;9.40;99.90
25628;DHT22;40915;50.826;4.356;2023-11-21T02:10:08;9.40;99.90
25628;DHT22;40915;50.826;4.356;2023-11-21T02:12:35;9.40;99.90
25628;DHT22;40915;50.826;4.356;2023-11-21T02:15:03;9.40;99.90
25628;DHT22;40915;50.826;4.356;2023-11-21T02:17:41;9.40;99.90
25628;DHT22;40915;50.826;4.356;2023-11-21T02:20:10;9.40;99.90
25628;DHT22;40915;50.826;4.356;2023-11-21T02:22:41;9.40;99.90
25628;DHT22;40915;50.826;4.356;2023-11-21T02:25:08;9.40;99.90
25628;DHT22;40915;50.826;4.356;2023-11-21T02:27:33;9.40;99.90
25628;DHT22;40915;50.826;4.356;2023-11-21T02:29:59;9.40;99.90
25628;DHT22;40915;50.826;4.356;2023-11-21T02:32:26;9.40;99.90
25628;DHT22;40915;50.826;4.356;2023-11-21T02:34:52;9.40;99.90
25628;DHT22;40915;50.826;4.356;2023-11-21T02:37:17;9.40;99.90
25628;DHT22;40915;50.826;4.356;2023-11-21T02:39:43;9.40;99.90
25628;DHT22;40915;50.826;4.356;2023-11-21T02:42:08;9.40;99.90
25628;DHT22;40915;50.826;4.356;2023-11-21T02:44:34;9.40;99.90
25628;DHT22;40915;50.826;4.356;2023-11-21T02:47:00;9.40;99.90
25628;DHT22;40915;50.826;4.356;2023-11-21T02:49:25;9.40;99.90
25628;DHT22;40915;50.826;4.356;2023-11-21T02:51:54;9.40;99.90
25628;DHT22;40915;50.826;4.356;2023-11-21T02:54:20;9.40;99.90
25628;DHT22;40915;50.826;4.356;2023-11-21T02:56:47;9.40;99.90
25628;DHT22;40915;50.826;4.356;2023-11-21T02:59:15;9.40;99.90
25628;DHT22;40915;50.826;4.356;2023-11-21T03:01:41;9.40;99.90
25628;DHT22;40915;50.826;4.356;2023-11-21T03:04:07;9.40;99.90
25628;DHT22;40915;50.826;4.356;2023-11-21T03:06:33;9.40;99.90
25628;DHT22;40915;50.826;4.356;2023-11-21T03:08:59;9.40;99.90
25628;DHT22;40915;50.826;4.356;2023-11-21T03:11:25;9.40;99.90
25628;DHT22;40915;50.826;4.356;2023-11-21T03:13:50;9.40;99.90
25628;DHT22;40915;50.826;4.356;2023-11-21T03:16:18;9.40;99.90
25628;DHT22;40915;50.826;4.356;2023-11-21T03:18:44;9.40;99.90
25628;DHT22;40915;50.826;4.356;2023-11-21T03:21:10;9.40;99.90
25628;DHT22;40915;50.826;4.356;2023-11-21T03:23:36;9.40;99.90
25628;DHT22;40915;50.826;4.356;2023-11-21T03:26:02;9.40;99.90
25628;DHT22;40915;50.826;4.356;2023-11-21T03:28:28;9.40;99.90
25628;DHT22;40915;50.826;4.356;2023-11-21T03:30:55;9.40;99.90
25628;DHT22;40915;50.826;4.356;2023-11-21T03:33:21;9.40;99.90
25628;DHT22;40915;50.826;4.356;2023-11-21T03:35:48;9.40;99.90
25628;DHT22;40915;50.826;4.356;2023-11-21T03:38:13;9.40;99.90
25628;DHT22;40915;50.826;4.356;2023-11-21T03:40:39;9.40;99.90
25628;DHT22;40915;50.826;4.356;2023-11-21T03:43:05;9.40;99.90
25628;DHT22;40915;50.826;4.356;2023-11-21T03:45:31;9.40;99.90
25628;DHT22;40915;50.826;4.356;2023-11-21T03:47:57;9.40;99.90
25628;DHT22;40915;50.826;4.356;2023-11-21T03:50:23;9.40;99.90
25628;DHT22;40915;50.826;4.356;2023-11-21T03:52:48;9.40;99.90
25628;DHT22;40915;50.826;4.356;2023-11-21T03:55:14;9.40;99.90
25628;DHT22;40915;50.826;4.356;2023-11-21T03:57:40;9.40;99.90
25628;DHT22;40915;50.826;4.356;2023-11-21T04:00:06;9.40;99.90
25628;DHT22;40915;50.826;4.356;2023-11-21T04:02:34;9.40;99.90
25628;DHT22;40915;50.826;4.356;2023-11-21T04:04:59;9.40;99.90
25628;DHT22;40915;50.826;4.356;2023-11-21T04:07:25;9.40;99.90
25628;DHT22;40915;50.826;4.356;2023-11-21T04:09:51;9.50;99.90
25628;DHT22;40915;50.826;4.356;2023-11-21T04:12:16;9.50;99.90
25628;DHT22;40915;50.826;4.356;2023-11-21T04:14:42;9.50;99.90
25628;DHT22;40915;50.826;4.356;2023-11-21T04:17:07;9.50;99.90
25628;DHT22;40915;50.826;4.356;2023-11-21T04:19:33;9.50;99.90
25628;DHT22;40915;50.826;4.356;2023-11-21T04:21:58;9.50;99.90
25628;DHT22;40915;50.826;4.356;2023-11-21T04:24:24;9.50;99.90
25628;DHT22;40915;50.826;4.356;2023-11-21T04:26:49;9.50;99.90
25628;DHT22;40915;50.826;4.356;2023-11-21T04:29:15;9.50;99.90
25628;DHT22;40915;50.826;4.356;2023-11-21T04:31:40;9.50;99.90
25628;DHT22;40915;50.826;4.356;2023-11-21T04:34:06;9.50;99.90
25628;DHT22;40915;50.826;4.356;2023-11-21T04:36:33;9.50;99.90
25628;DHT22;40915;50.826;4.356;2023-11-21T04:39:00;9.50;99.90
25628;DHT22;40915;50.826;4.356;2023-11-21T04:41:26;9.50;99.90
25628;DHT22;40915;50.826;4.356;2023-11-21T04:43:51;9.40;99.90
25628;DHT22;40915;50.826;4.356;2023-11-21T04:46:17;9.40;99.90
25628;DHT22;40915;50.826;4.356;2023-11-21T04:48:42;9.40;99.90
25628;DHT22;40915;50.826;4.356;2023-11-21T04:51:08;9.50;99.90
25628;DHT22;40915;50.826;4.356;2023-11-21T04:53:34;9.40;99.90
25628;DHT22;40915;50.826;4.356;2023-11-21T04:56:00;9.50;99.90
25628;DHT22;40915;50.826;4.356;2023-11-21T04:58:25;9.50;99.90
25628;DHT22;40915;50.826;4.356;2023-11-21T05:00:51;9.50;99.90
25628;DHT22;40915;50.826;4.356;2023-11-21T05:03:17;9.50;99.90
25628;DHT22;40915;50.826;4.356;2023-11-21T05:05:42;9.50;99.90
25628;DHT22;40915;50.826;4.356;2023-11-21T05:08:08;9.50;99.90
25628;DHT22;40915;50.826;4.356;2023-11-21T05:10:33;9.50;99.90
25628;DHT22;40915;50.826;4.356;2023-11-21T05:12:59;9.50;99.90
25628;DHT22;40915;50.826;4.356;2023-11-21T05:15:25;9.50;99.90
25628;DHT22;40915;50.826;4.356;2023-11-21T05:17:52;9.50;99.90
25628;DHT22;40915;50.826;4.356;2023-11-21T05:20:19;9.50;99.90
25628;DHT22;40915;50.826;4.356;2023-11-21T05:22:47;9.50;99.90
25628;DHT22;40915;50.826;4.356;2023-11-21T05:25:16;9.50;99.90
25628;DHT22;40915;50.826;4.356;2023-11-21T05:27:45;9.50;99.90
25628;DHT22;40915;50.826;4.356;2023-11-21T05:30:11;9.50;99.90
25628;DHT22;40915;50.826;4.356;2023-11-21T05:32:38;9.50;99.90
25628;DHT22;40915;50.826;4.356;2023-11-21T05:35:04;9.60;99.90
25628;DHT22;40915;50.826;4.356;2023-11-21T05:37:37;9.60;99.90
25628;DHT22;40915;50.826;4.356;2023-11-21T05:40:05;9.60;99.90
25628;DHT22;40915;50.826;4.356;2023-11-21T05:42:34;9.60;99.90
25628;DHT22;40915;50.826;4.356;2023-11-21T05:45:00;9.60;99.90
25628;DHT22;40915;50.826;4.356;2023-11-21T05:47:47;9.60;99.90
25628;DHT22;40915;50.826;4.356;2023-11-21T05:50:15;9.60;99.90
25628;DHT22;40915;50.826;4.356;2023-11-21T05:52:45;9.60;99.90
25628;DHT22;40915;50.826;4.356;2023-11-21T05:55:11;9.60;99.90
25628;DHT22;40915;50.826;4.356;2023-11-21T05:57:37;9.60;99.90
25628;DHT22;40915;50.826;4.356;2023-11-21T06:00:05;9.70;99.90
25628;DHT22;40915;50.826;4.356;2023-11-21T06:02:40;9.60;99.90
25628;DHT22;40915;50.826;4.356;2023-11-21T06:05:09;9.60;99.90
25628;DHT22;40915;50.826;4.356;2023-11-21T06:07:35;9.70;99.90
25628;DHT22;40915;50.826;4.356;2023-11-21T06:10:05;9.60;99.90
25628;DHT22;40915;50.826;4.356;2023-11-21T06:12:34;9.60;99.90
25628;DHT22;40915;50.826;4.356;2023-11-21T06:15:04;9.60;99.90
25628;DHT22;40915;50.826;4.356;2023-11-21T06:17:34;9.60;99.90
25628;DHT22;40915;50.826;4.356;2023-11-21T06:20:02;9.60;99.90
25628;DHT22;40915;50.826;4.356;2023-11-21T06:22:41;9.70;99.90
25628;DHT22;40915;50.826;4.356;2023-11-21T06:25:07;9.60;99.90
25628;DHT22;40915;50.826;4.356;2023-11-21T06:27:38;9.70;99.90
25628;DHT22;40915;50.826;4.356;2023-11-21T06:30:04;9.70;99.90
25628;DHT22;40915;50.826;4.356;2023-11-21T06:32:30;9.70;99.90
25628;DHT22;40915;50.826;4.356;2023-11-21T06:34:56;9.70;99.90
25628;DHT22;40915;50.826;4.356;2023-11-21T06:37:25;9.70;99.90
25628;DHT22;40915;50.826;4.356;2023-11-21T06:39:50;9.70;99.90
25628;DHT22;40915;50.826;4.356;2023-11-21T06:42:18;9.70;99.90
25628;DHT22;40915;50.826;4.356;2023-11-21T06:44:45;9.70;99.90
25628;DHT22;40915;50.826;4.356;2023-11-21T06:47:11;9.70;99.90
25628;DHT22;40915;50.826;4.356;2023-11-21T06:49:36;9.70;99.90
25628;DHT22;40915;50.826;4.356;2023-11-21T06:52:04;9.70;99.90
25628;DHT22;40915;50.826;4.356;2023-11-21T06:54:31;9.70;99.90
25628;DHT22;40915;50.826;4.356;2023-11-21T06:56:57;9.70;99.90
25628;DHT22;40915;50.826;4.356;2023-11-21T06:59:23;9.70;99.90
25628;DHT22;40915;50.826;4.356;2023-11-21T07:01:49;9.70;99.90
25628;DHT22;40915;50.826;4.356;2023-11-21T07:04:15;9.70;99.90
25628;DHT22;40915;50.826;4.356;2023-11-21T07:06:40;9.70;99.90
25628;DHT22;40915;50.826;4.356;2023-11-21T07:09:06;9.70;99.90
25628;DHT22;40915;50.826;4.356;2023-11-21T07:11:34;9.80;99.90
25628;DHT22;40915;50.826;4.356;2023-11-21T07:14:00;9.80;99.90
25628;DHT22;40915;50.826;4.356;2023-11-21T07:16:30;9.80;99.90
25628;DHT22;40915;50.826;4.356;2023-11-21T07:18:56;9.80;99.90
25628;DHT22;40915;50.826;4.356;2023-11-21T07:21:22;9.80;99.90
25628;DHT22;40915;50.826;4.356;2023-11-21T07:23:47;9.80;99.90
25628;DHT22;40915;50.826;4.356;2023-11-21T07:26:13;9.80;99.90
25628;DHT22;40915;50.826;4.356;2023-11-21T07:28:38;9.80;99.90
25628;DHT22;40915;50.826;4.356;2023-11-21T07:31:04;9.80;99.90
25628;DHT22;40915;50.826;4.356;2023-11-21T07:33:30;9.90;99.90
25628;DHT22;40915;50.826;4.356;2023-11-21T07:35:55;9.90;99.90
25628;DHT22;40915;50.826;4.356;2023-11-21T07:38:21;9.80;99.90
25628;DHT22;40915;50.826;4.356;2023-11-21T07:40:46;9.90;99.90
25628;DHT22;40915;50.826;4.356;2023-11-21T07:43:12;9.90;99.90
25628;DHT22;40915;50.826;4.356;2023-11-21T07:45:38;9.90;99.90
25628;DHT22;40915;50.826;4.356;2023-11-21T07:48:03;9.90;99.90
25628;DHT22;40915;50.826;4.356;2023-11-21T07:50:30;9.90;99.90
25628;DHT22;40915;50.826;4.356;2023-11-21T07:52:57;9.90;99.90
25628;DHT22;40915;50.826;4.356;2023-11-21T07:55:23;9.90;99.90
25628;DHT22;40915;50.826;4.356;2023-11-21T07:57:50;10.00;99.90
25628;DHT22;40915;50.826;4.356;2023-11-21T08:00:16;9.90;99.90
25628;DHT22;40915;50.826;4.356;2023-11-21T08:02:42;9.90;99.90
25628;DHT22;40915;50.826;4.356;2023-11-21T08:05:08;10.00;99.90
25628;DHT22;40915;50.826;4.356;2023-11-21T08:07:34;10.00;99.90
25628;DHT22;40915;50.826;4.356;2023-11-21T08:10:00;10.00;99.90
25628;DHT22;40915;50.826;4.356;2023-11-21T08:12:26;10.00;99.90
25628;DHT22;40915;50.826;4.356;2023-11-21T08:14:53;10.00;99.90
25628;DHT22;40915;50.826;4.356;2023-11-21T08:17:18;10.00;99.90
25628;DHT22;40915;50.826;4.356;2023-11-21T08:19:45;10.00;99.90
25628;DHT22;40915;50.826;4.356;2023-11-21T08:22:15;10.00;99.90
25628;DHT22;40915;50.826;4.356;2023-11-21T08:24:41;10.10;99.90
25628;DHT22;40915;50.826;4.356;2023-11-21T08:27:07;10.00;99.90
25628;DHT22;40915;50.826;4.356;2023-11-21T08:29:33;10.00;99.90
25628;DHT22;40915;50.826;4.356;2023-11-21T08:31:59;10.10;99.90
25628;DHT22;40915;50.826;4.356;2023-11-21T08:34:25;10.10;99.90
25628;DHT22;40915;50.826;4.356;2023-11-21T08:36:51;10.30;99.90
25628;DHT22;40915;50.826;4.356;2023-11-21T08:39:16;10.10;99.90
25628;DHT22;40915;50.826;4.356;2023-11-21T08:41:44;10.20;99.90
25628;DHT22;40915;50.826;4.356;2023-11-21T08:44:10;10.20;99.90
25628;DHT22;40915;50.826;4.356;2023-11-21T08:46:36;10.20;99.90
25628;DHT22;40915;50.826;4.356;2023-11-21T08:49:03;10.20;99.90
25628;DHT22;40915;50.826;4.356;2023-11-21T08:51:29;10.20;99.90
25628;DHT22;40915;50.826;4.356;2023-11-21T08:53:54;10.20;99.90
25628;DHT22;40915;50.826;4.356;2023-11-21T08:56:24;10.20;99.90
25628;DHT22;40915;50.826;4.356;2023-11-21T08:58:50;10.20;99.90
25628;DHT22;40915;50.826;4.356;2023-11-21T09:01:16;10.20;99.90
25628;DHT22;40915;50.826;4.356;2023-11-21T09:03:42;10.20;99.90
25628;DHT22;40915;50.826;4.356;2023-11-21T09:06:09;10.20;99.90
25628;DHT22;40915;50.826;4.356;2023-11-21T09:08:35;10.20;99.90
25628;DHT22;40915;50.826;4.356;2023-11-21T09:11:01;10.30;99.90
25628;DHT22;40915;50.826;4.356;2023-11-21T09:13:28;10.30;99.90
25628;DHT22;40915;50.826;4.356;2023-11-21T09:15:55;10.30;99.90
25628;DHT22;40915;50.826;4.356;2023-11-21T09:18:20;10.40;99.90
25628;DHT22;40915;50.826;4.356;2023-11-21T09:20:46;10.40;99.90
25628;DHT22;40915;50.826;4.356;2023-11-21T09:23:12;10.40;99.90
25628;DHT22;40915;50.826;4.356;2023-11-21T09:25:38;10.40;99.90
25628;DHT22;40915;50.826;4.356;2023-11-21T09:28:06;10.40;99.90
25628;DHT22;40915;50.826;4.356;2023-11-21T09:30:36;10.40;99.90
25628;DHT22;40915;50.826;4.356;2023-11-21T09:33:03;10.40;99.90
25628;DHT22;40915;50.826;4.356;2023-11-21T09:35:33;10.40;99.90
25628;DHT22;40915;50.826;4.356;2023-11-21T09:37:59;10.40;99.90
25628;DHT22;40915;50.826;4.356;2023-11-21T09:40:27;10.40;99.90
25628;DHT22;40915;50.826;4.356;2023-11-21T09:42:56;10.50;99.90
25628;DHT22;40915;50.826;4.356;2023-11-21T09:45:26;10.50;99.90
25628;DHT22;40915;50.826;4.356;2023-11-21T09:47:55;10.50;99.90
25628;DHT22;40915;50.826;4.356;2023-11-21T09:50:22;10.60;99.90
25628;DHT22;40915;50.826;4.356;2023-11-21T09:53:19;10.50;99.90
25628;DHT22;40915;50.826;4.356;2023-11-21T09:55:51;10.60;99.90
25628;DHT22;40915;50.826;4.356;2023-11-21T09:58:18;10.60;99.90
25628;DHT22;40915;50.826;4.356;2023-11-21T10:00:46;10.60;99.90
25628;DHT22;40915;50.826;4.356;2023-11-21T10:03:13;10.60;99.90
25628;DHT22;40915;50.826;4.356;2023-11-21T10:05:40;10.70;99.90
25628;DHT22;40915;50.826;4.356;2023-11-21T10:08:08;10.80;99.90
25628;DHT22;40915;50.826;4.356;2023-11-21T10:10:36;10.90;99.90
25628;DHT22;40915;50.826;4.356;2023-11-21T10:13:04;10.90;99.90
25628;DHT22;40915;50.826;4.356;2023-11-21T10:15:35;10.90;99.90
25628;DHT22;40915;50.826;4.356;2023-11-21T10:18:06;10.80;99.90
25628;DHT22;40915;50.826;4.356;2023-11-21T10:20:33;10.80;99.90
25628;DHT22;40915;50.826;4.356;2023-11-21T10:23:02;10.80;99.90
25628;DHT22;40915;50.826;4.356;2023-11-21T10:25:32;10.80;99.90
25628;DHT22;40915;50.826;4.356;2023-11-21T10:27:59;10.80;99.90
25628;DHT22;40915;50.826;4.356;2023-11-21T10:30:34;10.80;99.90
25628;DHT22;40915;50.826;4.356;2023-11-21T10:33:07;10.90;99.90
25628;DHT22;40915;50.826;4.356;2023-11-21T10:35:42;10.90;99.90
25628;DHT22;40915;50.826;4.356;2023-11-21T10:38:12;10.90;99.90
25628;DHT22;40915;50.826;4.356;2023-11-21T10:40:40;10.90;99.90
25628;DHT22;40915;50.826;4.356;2023-11-21T10:43:10;10.90;99.90
25628;DHT22;40915;50.826;4.356;2023-11-21T10:45:37;10.90;99.90
25628;DHT22;40915;50.826;4.356;2023-11-21T10:48:05;10.90;99.90
25628;DHT22;40915;50.826;4.356;2023-11-21T10:50:34;10.90;99.90
25628;DHT22;40915;50.826;4.356;2023-11-21T10:53:02;11.00;99.90
25628;DHT22;40915;50.826;4.356;2023-11-21T10:55:29;11.00;99.90
25628;DHT22;40915;50.826;4.356;2023-11-21T10:57:59;11.10;99.90
25628;DHT22;40915;50.826;4.356;2023-11-21T11:00:27;11.10;99.90
25628;DHT22;40915;50.826;4.356;2023-11-21T11:02:53;11.10;99.90
25628;DHT22;40915;50.826;4.356;2023-11-21T11:05:25;11.10;99.90
25628;DHT22;40915;50.826;4.356;2023-11-21T11:07:56;11.20;99.90
25628;DHT22;40915;50.826;4.356;2023-11-21T11:10:25;11.20;99.90
25628;DHT22;40915;50.826;4.356;2023-11-21T11:12:53;11.30;99.90
25628;DHT22;40915;50.826;4.356;2023-11-21T11:15:21;11.40;99.90
25628;DHT22;40915;50.826;4.356;2023-11-21T11:17:47;11.50;99.90
25628;DHT22;40915;50.826;4.356;2023-11-21T11:20:15;11.40;99.90
25628;DHT22;40915;50.826;4.356;2023-11-21T11:28:29;11.40;99.90
25628;DHT22;40915;50.826;4.356;2023-11-21T11:33:53;11.30;99.90
25628;DHT22;40915;50.826;4.356;2023-11-21T11:36:43;11.40;99.90
25628;DHT22;40915;50.826;4.356;2023-11-21T11:41:58;11.50;99.90
25628;DHT22;40915;50.826;4.356;2023-11-21T11:47:26;11.60;99.90
25628;DHT22;40915;50.826;4.356;2023-11-21T11:50:10;11.60;99.90
25628;DHT22;40915;50.826;4.356;2023-11-21T11:52:55;11.60;99.90
25628;DHT22;40915;50.826;4.356;2023-11-21T11:55:24;11.50;99.90
25628;DHT22;40915;50.826;4.356;2023-11-21T11:57:54;11.50;99.90
25628;DHT22;40915;50.826;4.356;2023-11-21T12:02:54;11.40;99.90
25628;DHT22;40915;50.826;4.356;2023-11-21T12:05:22;11.40;99.90
25628;DHT22;40915;50.826;4.356;2023-11-21T12:07:53;12.20;99.90
25628;DHT22;40915;50.826;4.356;2023-11-21T12:10:22;11.40;99.90
25628;DHT22;40915;50.826;4.356;2023-11-21T12:12:51;11.30;99.90
25628;DHT22;40915;50.826;4.356;2023-11-21T12:15:20;11.30;99.90
25628;DHT22;40915;50.826;4.356;2023-11-21T12:17:47;11.30;99.90
25628;DHT22;40915;50.826;4.356;2023-11-21T12:20:15;11.20;99.90
25628;DHT22;40915;50.826;4.356;2023-11-21T12:22:51;11.20;99.90
25628;DHT22;40915;50.826;4.356;2023-11-21T12:25:20;11.10;99.90
25628;DHT22;40915;50.826;4.356;2023-11-21T12:27:50;11.20;99.90
25628;DHT22;40915;50.826;4.356;2023-11-21T12:30:18;11.20;99.90
25628;DHT22;40915;50.826;4.356;2023-11-21T12:32:45;11.20;99.90
25628;DHT22;40915;50.826;4.356;2023-11-21T12:35:14;11.20;99.90
25628;DHT22;40915;50.826;4.356;2023-11-21T12:37:40;11.20;99.90
25628;DHT22;40915;50.826;4.356;2023-11-21T12:40:09;11.30;99.90
25628;DHT22;40915;50.826;4.356;2023-11-21T12:42:45;11.30;99.90
25628;DHT22;40915;50.826;4.356;2023-11-21T12:45:24;11.30;99.90
25628;DHT22;40915;50.826;4.356;2023-11-21T12:48:04;11.40;99.90
25628;DHT22;40915;50.826;4.356;2023-11-21T12:50:34;11.50;99.90
25628;DHT22;40915;50.826;4.356;2023-11-21T12:55:32;11.50;99.90
25628;DHT22;40915;50.826;4.356;2023-11-21T12:58:01;11.50;99.90
25628;DHT22;40915;50.826;4.356;2023-11-21T13:00:44;11.50;99.90
25628;DHT22;40915;50.826;4.356;2023-11-21T13:03:12;11.50;99.90
25628;DHT22;40915;50.826;4.356;2023-11-21T13:05:41;11.40;99.90
25628;DHT22;40915;50.826;4.356;2023-11-21T13:08:11;11.50;99.90
25628;DHT22;40915;50.826;4.356;2023-11-21T13:10:40;11.40;99.90
25628;DHT22;40915;50.826;4.356;2023-11-21T13:13:08;11.40;99.90
25628;DHT22;40915;50.826;4.356;2023-11-21T13:15:39;11.30;99.90
25628;DHT22;40915;50.826;4.356;2023-11-21T13:18:06;11.30;99.90
25628;DHT22;40915;50.826;4.356;2023-11-21T13:20:32;11.30;99.90
25628;DHT22;40915;50.826;4.356;2023-11-21T13:22:59;11.30;99.90
25628;DHT22;40915;50.826;4.356;2023-11-21T13:25:26;11.20;99.90
25628;DHT22;40915;50.826;4.356;2023-11-21T13:27:57;11.30;99.90
25628;DHT22;40915;50.826;4.356;2023-11-21T13:30:23;11.20;99.90
25628;DHT22;40915;50.826;4.356;2023-11-21T13:32:53;11.20;99.90
25628;DHT22;40915;50.826;4.356;2023-11-21T13:35:24;11.20;99.90
25628;DHT22;40915;50.826;4.356;2023-11-21T13:38:08;11.20;99.90
25628;DHT22;40915;50.826;4.356;2023-11-21T13:40:34;11.20;99.90
25628;DHT22;40915;50.826;4.356;2023-11-21T13:43:05;11.20;99.90
25628;DHT22;40915;50.826;4.356;2023-11-21T13:45:35;11.20;99.90
25628;DHT22;40915;50.826;4.356;2023-11-21T13:48:01;11.20;99.90
25628;DHT22;40915;50.826;4.356;2023-11-21T13:50:26;11.20;99.90
25628;DHT22;40915;50.826;4.356;2023-11-21T13:53:02;11.20;99.90
25628;DHT22;40915;50.826;4.356;2023-11-21T13:55:34;11.30;99.90
25628;DHT22;40915;50.826;4.356;2023-11-21T13:58:01;11.30;99.90
25628;DHT22;40915;50.826;4.356;2023-11-21T14:00:34;11.20;99.90
25628;DHT22;40915;50.826;4.356;2023-11-21T14:03:14;11.20;99.90
25628;DHT22;40915;50.826;4.356;2023-11-21T14:05:47;11.20;99.90
25628;DHT22;40915;50.826;4.356;2023-11-21T14:08:20;11.10;99.90
25628;DHT22;40915;50.826;4.356;2023-11-21T14:10:50;11.10;99.90
25628;DHT22;40915;50.826;4.356;2023-11-21T14:13:23;11.10;99.90
25628;DHT22;40915;50.826;4.356;2023-11-21T14:15:50;11.00;99.90
25628;DHT22;40915;50.826;4.356;2023-11-21T14:18:28;11.00;99.90
25628;DHT22;40915;50.826;4.356;2023-11-21T14:21:04;11.00;99.90
25628;DHT22;40915;50.826;4.356;2023-11-21T14:23:31;11.00;99.90
25628;DHT22;40915;50.826;4.356;2023-11-21T14:25:56;10.90;99.90
25628;DHT22;40915;50.826;4.356;2023-11-21T14:28:23;11.00;99.90
25628;DHT22;40915;50.826;4.356;2023-11-21T14:30:49;10.90;99.90
25628;DHT22;40915;50.826;4.356;2023-11-21T14:33:14;10.90;99.90
25628;DHT22;40915;50.826;4.356;2023-11-21T14:35:42;10.90;99.90
25628;DHT22;40915;50.826;4.356;2023-11-21T14:38:08;10.90;99.90
25628;DHT22;40915;50.826;4.356;2023-11-21T14:40:35;10.90;99.90
25628;DHT22;40915;50.826;4.356;2023-11-21T14:43:02;10.90;99.90
25628;DHT22;40915;50.826;4.356;2023-11-21T14:45:30;10.90;99.90
25628;DHT22;40915;50.826;4.356;2023-11-21T14:47:56;10.90;99.90
25628;DHT22;40915;50.826;4.356;2023-11-21T14:50:35;10.90;99.90
25628;DHT22;40915;50.826;4.356;2023-11-21T14:53:06;10.90;99.90
25628;DHT22;40915;50.826;4.356;2023-11-21T14:55:35;10.90;99.90
25628;DHT22;40915;50.826;4.356;2023-11-21T14:58:17;10.90;99.90
25628;DHT22;40915;50.826;4.356;2023-11-21T15:01:03;10.90;99.90
25628;DHT22;40915;50.826;4.356;2023-11-21T15:03:29;10.90;99.90
25628;DHT22;40915;50.826;4.356;2023-11-21T15:05:58;10.90;99.90
25628;DHT22;40915;50.826;4.356;2023-11-21T15:08:24;10.90;99.90
25628;DHT22;40915;50.826;4.356;2023-11-21T15:10:57;10.80;99.90
25628;DHT22;40915;50.826;4.356;2023-11-21T15:13:23;10.90;99.90
25628;DHT22;40915;50.826;4.356;2023-11-21T15:15:50;10.80;99.90
25628;DHT22;40915;50.826;4.356;2023-11-21T15:18:17;10.80;99.90
25628;DHT22;40915;50.826;4.356;2023-11-21T15:20:43;10.80;99.90
25628;DHT22;40915;50.826;4.356;2023-11-21T15:23:09;10.80;99.90
25628;DHT22;40915;50.826;4.356;2023-11-21T15:25:35;10.80;99.90
25628;DHT22;40915;50.826;4.356;2023-11-21T15:28:02;10.80;99.90
25628;DHT22;40915;50.826;4.356;2023-11-21T15:30:28;10.80;99.90
25628;DHT22;40915;50.826;4.356;2023-11-21T15:33:00;10.80;99.90
25628;DHT22;40915;50.826;4.356;2023-11-21T15:35:25;10.80;99.90
25628;DHT22;40915;50.826;4.356;2023-11-21T15:37:53;10.80;99.90
25628;DHT22;40915;50.826;4.356;2023-11-21T15:40:19;10.80;99.90
25628;DHT22;40915;50.826;4.356;2023-11-21T15:42:45;10.80;99.90
25628;DHT22;40915;50.826;4.356;2023-11-21T15:45:11;10.80;99.90
25628;DHT22;40915;50.826;4.356;2023-11-21T15:47:37;10.80;99.90
25628;DHT22;40915;50.826;4.356;2023-11-21T15:50:03;10.80;99.90
25628;DHT22;40915;50.826;4.356;2023-11-21T15:52:33;10.80;99.90
25628;DHT22;40915;50.826;4.356;2023-11-21T15:54:59;10.80;99.90
25628;DHT22;40915;50.826;4.356;2023-11-21T15:57:25;10.70;99.90
25628;DHT22;40915;50.826;4.356;2023-11-21T15:59:50;10.70;99.90